createdAt,value
2019-03-17T00:00:06.532Z,10.40
2019-03-17T00:02:37.765Z,10.40
2019-03-17T00:05:09.511Z,10.40
2019-03-17T00:07:40.755Z,10.40
2019-03-17T00:10:12.325Z,10.40
2019-03-17T00:12:43.509Z,10.40
2019-03-17T00:15:14.843Z,10.40
2019-03-17T00:17:46.498Z,10.40
2019-03-17T00:20:17.678Z,10.30
2019-03-17T00:22:48.857Z,10.30
2019-03-17T00:25:20.124Z,10.20
2019-03-17T00:27:51.718Z,10.20
2019-03-17T00:30:23.030Z,10.20
2019-03-17T00:32:54.695Z,10.20
2019-03-17T00:35:25.883Z,10.20
2019-03-17T00:37:57.028Z,10.30
2019-03-17T00:40:28.335Z,10.30
2019-03-17T00:42:59.455Z,10.30
2019-03-17T00:45:30.902Z,10.20
2019-03-17T00:48:02.149Z,10.30
2019-03-17T00:50:33.534Z,10.30
2019-03-17T00:53:04.821Z,10.30
2019-03-17T00:55:35.994Z,10.20
2019-03-17T00:58:07.275Z,10.20
2019-03-17T01:00:38.541Z,10.20
2019-03-17T01:03:09.699Z,10.20
2019-03-17T01:05:40.859Z,10.10
2019-03-17T01:08:12.387Z,10.10
2019-03-17T01:10:43.611Z,10.10
2019-03-17T01:13:14.758Z,10.10
2019-03-17T01:15:46.682Z,10.10
2019-03-17T01:18:18.102Z,10.10
2019-03-17T01:20:49.214Z,9.90
2019-03-17T01:23:20.326Z,9.90
2019-03-17T01:25:52.735Z,9.90
2019-03-17T01:28:24.419Z,9.80
2019-03-17T01:30:56.029Z,9.80
2019-03-17T01:33:27.501Z,9.80
2019-03-17T01:35:58.974Z,9.80
2019-03-17T01:38:31.231Z,9.80
2019-03-17T01:41:02.703Z,9.90
2019-03-17T01:43:34.217Z,9.80
2019-03-17T01:46:06.230Z,9.80
2019-03-17T01:48:38.085Z,9.70
2019-03-17T01:51:09.881Z,9.70
2019-03-17T01:53:42.757Z,9.70
2019-03-17T01:56:14.048Z,9.60
2019-03-17T01:58:45.306Z,9.60
2019-03-17T02:01:16.649Z,9.60
2019-03-17T02:03:48.167Z,9.60
2019-03-17T02:06:19.659Z,9.60
2019-03-17T02:08:51.147Z,9.60
2019-03-17T02:11:22.896Z,9.60
2019-03-17T02:13:54.370Z,9.60
2019-03-17T02:16:25.923Z,9.60
2019-03-17T02:18:57.262Z,9.60
2019-03-17T02:21:28.520Z,9.60
2019-03-17T02:24:00.092Z,9.60
2019-03-17T02:26:31.791Z,9.50
2019-03-17T02:29:02.992Z,9.50
2019-03-17T02:31:34.244Z,9.40
2019-03-17T02:34:05.575Z,9.50
2019-03-17T02:36:36.668Z,9.50
2019-03-17T02:39:08.434Z,9.40
2019-03-17T02:41:39.596Z,9.40
2019-03-17T02:44:10.728Z,9.30
2019-03-17T02:46:41.908Z,9.30
2019-03-17T02:49:13.033Z,9.30
2019-03-17T02:51:44.146Z,9.30
2019-03-17T02:54:15.292Z,9.30
2019-03-17T02:56:46.485Z,9.40
2019-03-17T02:59:17.709Z,9.50
2019-03-17T03:01:49.140Z,9.50
2019-03-17T03:04:20.259Z,9.50
2019-03-17T03:06:51.377Z,9.50
2019-03-17T03:09:22.638Z,9.60
2019-03-17T03:11:53.748Z,9.60
2019-03-17T03:14:24.863Z,9.70
2019-03-17T03:16:56.420Z,9.70
2019-03-17T03:19:27.642Z,9.70
2019-03-17T03:21:59.061Z,9.80
2019-03-17T03:24:30.116Z,9.70
2019-03-17T03:27:01.549Z,9.80
2019-03-17T03:29:33.034Z,9.80
2019-03-17T03:32:04.617Z,9.80
2019-03-17T03:34:36.036Z,9.80
2019-03-17T03:37:07.292Z,9.80
2019-03-17T03:39:38.355Z,9.80
2019-03-17T03:42:09.853Z,9.70
2019-03-17T03:44:41.246Z,9.60
2019-03-17T03:47:12.397Z,9.50
2019-03-17T03:49:43.672Z,9.50
2019-03-17T03:52:15.511Z,9.50
2019-03-17T03:54:47.373Z,9.40
2019-03-17T03:57:18.561Z,9.50
2019-03-17T03:59:49.823Z,9.40
2019-03-17T04:02:21.273Z,9.40
2019-03-17T04:04:52.620Z,9.30
2019-03-17T04:07:23.936Z,9.30
2019-03-17T04:09:55.194Z,9.30
2019-03-17T04:12:26.375Z,9.30
2019-03-17T04:14:57.492Z,9.30
2019-03-17T04:17:28.680Z,9.30
2019-03-17T04:19:59.748Z,9.40
2019-03-17T04:22:31.258Z,9.40
2019-03-17T04:25:02.576Z,9.50
2019-03-17T04:27:33.772Z,9.50
2019-03-17T04:30:05.897Z,9.50
2019-03-17T04:32:37.068Z,9.50
2019-03-17T04:35:08.420Z,9.50
2019-03-17T04:37:39.609Z,9.50
2019-03-17T04:40:11.004Z,9.60
2019-03-17T04:42:42.441Z,9.60
2019-03-17T04:45:13.762Z,9.60
2019-03-17T04:47:44.925Z,9.60
2019-03-17T04:50:16.352Z,9.60
2019-03-17T04:52:47.429Z,9.70
2019-03-17T04:55:18.569Z,9.70
2019-03-17T04:57:50.161Z,9.80
2019-03-17T05:00:21.564Z,9.80
2019-03-17T05:02:52.745Z,9.80
2019-03-17T05:05:23.921Z,9.80
2019-03-17T05:07:55.174Z,9.80
2019-03-17T05:10:26.264Z,9.80
2019-03-17T05:12:57.516Z,9.80
2019-03-17T05:15:28.850Z,9.70
2019-03-17T05:18:00.017Z,9.70
2019-03-17T05:20:31.834Z,9.70
2019-03-17T05:23:05.735Z,9.70
2019-03-17T05:25:36.037Z,9.70
2019-03-17T05:28:07.364Z,9.70
2019-03-17T05:30:38.565Z,9.70
2019-03-17T05:35:40.825Z,9.50
2019-03-17T05:38:12.068Z,9.60
2019-03-17T05:40:43.954Z,9.60
2019-03-17T05:43:15.416Z,9.50
2019-03-17T05:45:47.192Z,9.60
2019-03-17T05:48:18.607Z,9.60
2019-03-17T05:50:49.844Z,9.50
2019-03-17T05:53:20.919Z,9.50
2019-03-17T05:55:52.154Z,9.50
2019-03-17T05:58:23.302Z,9.50
2019-03-17T06:00:54.858Z,9.50
2019-03-17T06:03:25.941Z,9.50
2019-03-17T06:05:57.163Z,9.50
2019-03-17T06:08:28.276Z,9.50
2019-03-17T06:10:59.441Z,9.50
2019-03-17T06:13:30.669Z,9.60
2019-03-17T06:16:01.887Z,9.60
2019-03-17T06:18:32.974Z,9.60
2019-03-17T06:21:04.135Z,9.60
2019-03-17T06:23:35.352Z,9.50
2019-03-17T06:26:06.628Z,9.50
2019-03-17T06:28:37.797Z,9.60
2019-03-17T06:31:09.339Z,9.60
2019-03-17T06:33:40.573Z,9.50
2019-03-17T06:36:11.800Z,9.60
2019-03-17T06:38:42.923Z,9.60
2019-03-17T06:41:14.281Z,9.60
2019-03-17T06:43:45.452Z,9.60
2019-03-17T06:46:16.636Z,9.60
2019-03-17T06:48:48.330Z,9.70
2019-03-17T06:51:19.615Z,9.80
2019-03-17T06:53:56.289Z,9.80
2019-03-17T06:56:23.727Z,9.60
2019-03-17T06:58:54.879Z,9.70
2019-03-17T07:01:26.120Z,9.60
2019-03-17T07:03:57.405Z,9.60
2019-03-17T07:06:28.626Z,9.50
2019-03-17T07:08:59.929Z,9.50
2019-03-17T07:11:31.272Z,9.50
2019-03-17T07:14:02.866Z,9.50
2019-03-17T07:16:33.976Z,9.40
2019-03-17T07:19:05.283Z,9.40
2019-03-17T07:21:36.788Z,9.40
2019-03-17T07:24:08.006Z,9.30
2019-03-17T07:26:39.568Z,9.30
2019-03-17T07:29:11.138Z,9.40
2019-03-17T07:31:42.266Z,9.40
2019-03-17T07:34:14.409Z,9.40
2019-03-17T07:36:45.495Z,9.40
2019-03-17T07:39:16.972Z,9.50
2019-03-17T07:41:48.398Z,9.50
2019-03-17T07:44:19.854Z,9.60
2019-03-17T07:46:51.033Z,9.60
2019-03-17T07:49:22.211Z,9.60
2019-03-17T07:51:53.540Z,9.70
2019-03-17T07:54:25.101Z,9.80
2019-03-17T07:56:56.204Z,9.80
2019-03-17T07:59:27.474Z,9.70
2019-03-17T08:01:58.714Z,9.60
2019-03-17T08:04:41.626Z,9.50
2019-03-17T08:07:02.899Z,9.50
2019-03-17T08:09:34.300Z,8.70
2019-03-17T08:12:05.496Z,8.20
2019-03-17T08:14:36.783Z,8.00
2019-03-17T08:17:08.366Z,8.00
2019-03-17T08:19:39.521Z,8.00
2019-03-17T08:22:10.798Z,8.00
2019-03-17T08:24:41.883Z,8.00
2019-03-17T08:27:13.093Z,8.00
2019-03-17T08:29:44.197Z,8.10
2019-03-17T08:32:15.410Z,8.00
2019-03-17T08:34:47.262Z,8.10
2019-03-17T08:37:18.607Z,8.10
2019-03-17T08:39:50.802Z,8.30
2019-03-17T08:42:22.663Z,8.30
2019-03-17T08:44:54.300Z,8.20
2019-03-17T08:47:25.950Z,8.10
2019-03-17T08:49:57.173Z,8.20
2019-03-17T08:52:28.273Z,8.10
2019-03-17T08:54:59.383Z,8.20
2019-03-17T08:57:30.573Z,8.20
2019-03-17T09:00:01.737Z,8.30
2019-03-17T09:02:33.058Z,8.30
2019-03-17T09:05:04.861Z,8.30
2019-03-17T09:07:36.152Z,8.40
2019-03-17T09:10:08.786Z,8.40
2019-03-17T09:12:39.957Z,8.60
2019-03-17T09:15:11.305Z,8.70
2019-03-17T09:17:42.822Z,8.90
2019-03-17T09:20:14.161Z,9.10
2019-03-17T09:22:45.798Z,9.10
2019-03-17T09:25:17.045Z,9.20
2019-03-17T09:27:48.337Z,9.20
2019-03-17T09:30:19.617Z,9.30
2019-03-17T09:32:50.841Z,9.40
2019-03-17T09:35:22.381Z,9.40
2019-03-17T09:37:53.491Z,9.40
2019-03-17T09:40:24.710Z,9.40
2019-03-17T09:42:56.157Z,9.50
2019-03-17T09:45:27.496Z,9.50
2019-03-17T09:47:59.417Z,9.50
2019-03-17T09:50:30.974Z,9.60
2019-03-17T09:53:02.118Z,9.60
2019-03-17T09:55:33.178Z,9.80
2019-03-17T09:58:04.389Z,10.00
2019-03-17T10:00:35.557Z,10.20
2019-03-17T10:03:06.899Z,10.30
2019-03-17T10:05:38.250Z,10.40
2019-03-17T10:08:09.748Z,10.50
2019-03-17T10:10:41.502Z,10.60
2019-03-17T10:13:12.886Z,10.70
2019-03-17T10:15:44.136Z,10.60
2019-03-17T10:18:15.442Z,10.70
2019-03-17T10:20:46.629Z,10.80
2019-03-17T10:23:17.856Z,10.80
2019-03-17T10:25:49.122Z,10.70
2019-03-17T10:28:20.344Z,10.60
2019-03-17T10:30:51.605Z,10.60
2019-03-17T10:33:22.912Z,10.60
2019-03-17T10:35:54.100Z,10.60
2019-03-17T10:38:25.477Z,10.70
2019-03-17T10:40:56.856Z,10.60
2019-03-17T10:43:28.480Z,10.30
2019-03-17T10:45:59.736Z,10.20
2019-03-17T10:48:31.412Z,9.80
2019-03-17T10:51:02.703Z,9.40
2019-03-17T10:53:34.810Z,9.30
2019-03-17T10:56:06.292Z,9.20
2019-03-17T10:58:37.641Z,9.20
2019-03-17T11:01:09.281Z,9.30
2019-03-17T11:03:40.510Z,9.60
2019-03-17T11:06:11.843Z,9.90
2019-03-17T11:08:43.106Z,10.10
2019-03-17T11:11:14.225Z,10.30
2019-03-17T11:13:45.523Z,10.50
2019-03-17T11:16:17.180Z,10.80
2019-03-17T11:18:48.385Z,11.00
2019-03-17T11:21:19.901Z,11.80
2019-03-17T11:23:51.096Z,13.00
2019-03-17T11:26:22.455Z,13.60
2019-03-17T11:28:53.670Z,13.10
2019-03-17T11:31:25.000Z,12.70
2019-03-17T11:33:56.291Z,12.80
2019-03-17T11:36:27.390Z,13.50
2019-03-17T11:38:59.011Z,14.20
2019-03-17T11:41:30.376Z,14.70
2019-03-17T11:44:01.585Z,14.70
2019-03-17T11:46:32.846Z,14.70
2019-03-17T11:49:04.249Z,13.90
2019-03-17T11:51:35.433Z,12.80
2019-03-17T11:54:06.811Z,12.70
2019-03-17T11:56:37.981Z,13.00
2019-03-17T11:59:09.644Z,12.60
2019-03-17T12:01:41.157Z,12.60
2019-03-17T12:04:12.635Z,12.70
2019-03-17T12:06:44.047Z,12.70
2019-03-17T12:09:15.394Z,12.70
2019-03-17T12:11:46.703Z,12.60
2019-03-17T12:14:18.149Z,12.60
2019-03-17T12:16:49.705Z,12.60
2019-03-17T12:19:21.131Z,12.80
2019-03-17T12:21:53.743Z,13.20
2019-03-17T12:24:24.948Z,13.60
2019-03-17T12:26:56.160Z,13.50
2019-03-17T12:29:27.652Z,13.20
2019-03-17T12:31:59.045Z,12.80
2019-03-17T12:34:30.217Z,12.60
2019-03-17T12:37:01.818Z,12.60
2019-03-17T12:39:33.321Z,12.50
2019-03-17T12:42:05.394Z,12.50
2019-03-17T12:44:37.655Z,12.50
2019-03-17T12:47:08.977Z,12.80
2019-03-17T12:49:40.882Z,13.00
2019-03-17T12:52:12.118Z,12.90
2019-03-17T12:54:43.513Z,12.80
2019-03-17T12:57:14.783Z,12.80
2019-03-17T12:59:46.069Z,12.50
2019-03-17T13:02:17.436Z,12.50
2019-03-17T13:04:48.966Z,12.50
2019-03-17T13:07:20.140Z,12.60
2019-03-17T13:09:51.367Z,12.70
2019-03-17T13:12:22.744Z,12.60
2019-03-17T13:14:54.142Z,12.50
2019-03-17T13:17:25.386Z,12.50
2019-03-17T13:19:58.287Z,12.30
2019-03-17T13:22:29.487Z,12.00
2019-03-17T13:25:00.711Z,12.00
2019-03-17T13:27:32.059Z,12.00
2019-03-17T13:30:03.813Z,12.50
2019-03-17T13:32:35.531Z,12.90
2019-03-17T13:35:07.707Z,13.20
2019-03-17T13:37:40.235Z,13.20
2019-03-17T13:40:12.992Z,12.90
2019-03-17T13:42:44.341Z,12.50
2019-03-17T13:45:16.010Z,12.50
2019-03-17T13:47:47.281Z,12.60
2019-03-17T13:50:18.763Z,12.50
2019-03-17T13:52:49.890Z,12.70
2019-03-17T13:55:21.206Z,12.80
2019-03-17T14:00:24.821Z,11.30
2019-03-17T14:02:55.935Z,10.40
2019-03-17T14:05:27.213Z,10.10
2019-03-17T14:07:58.404Z,9.90
2019-03-17T14:10:40.316Z,10.00
2019-03-17T14:13:02.971Z,9.80
2019-03-17T14:15:34.125Z,9.60
2019-03-17T14:18:05.431Z,9.60
2019-03-17T14:20:36.741Z,9.60
2019-03-17T14:23:07.849Z,9.70
2019-03-17T14:25:39.108Z,9.70
2019-03-17T14:28:10.383Z,9.90
2019-03-17T14:30:42.128Z,10.10
2019-03-17T14:33:13.301Z,10.20
2019-03-17T14:35:44.414Z,10.30
2019-03-17T14:38:15.865Z,10.30
2019-03-17T14:40:53.799Z,10.30
2019-03-17T14:43:20.093Z,10.40
2019-03-17T14:45:51.842Z,10.20
2019-03-17T14:48:23.094Z,10.30
2019-03-17T14:50:54.608Z,10.30
2019-03-17T14:53:25.872Z,10.20
2019-03-17T14:55:57.069Z,10.10
2019-03-17T14:58:28.187Z,10.10
2019-03-17T15:00:59.509Z,9.80
2019-03-17T15:03:30.935Z,9.90
2019-03-17T15:06:02.184Z,10.00
2019-03-17T15:08:33.517Z,10.00
2019-03-17T15:11:06.374Z,9.70
2019-03-17T15:13:38.024Z,8.80
2019-03-17T15:16:09.348Z,8.30
2019-03-17T15:18:40.826Z,7.90
2019-03-17T15:21:11.958Z,8.00
2019-03-17T15:23:43.116Z,7.80
2019-03-17T15:26:14.690Z,7.70
2019-03-17T15:28:46.639Z,7.70
2019-03-17T15:31:17.883Z,7.80
2019-03-17T15:33:49.095Z,7.80
2019-03-17T15:36:20.755Z,7.70
2019-03-17T15:38:51.938Z,7.50
2019-03-17T15:41:23.449Z,7.60
2019-03-17T15:43:54.992Z,7.70
2019-03-17T15:46:26.223Z,7.90
2019-03-17T15:48:57.680Z,8.10
2019-03-17T15:51:29.085Z,8.30
2019-03-17T15:54:00.302Z,8.60
2019-03-17T15:56:31.714Z,8.80
2019-03-17T15:59:03.183Z,8.50
2019-03-17T16:01:34.367Z,8.50
2019-03-17T16:04:05.706Z,8.50
2019-03-17T16:06:36.853Z,8.50
2019-03-17T16:09:10.159Z,8.50
2019-03-17T16:11:41.521Z,8.50
2019-03-17T16:14:12.734Z,8.40
2019-03-17T16:16:43.848Z,8.40
2019-03-17T16:19:15.105Z,8.30
2019-03-17T16:21:46.583Z,8.30
2019-03-17T16:24:19.333Z,8.30
2019-03-17T16:26:50.646Z,8.30
2019-03-17T16:29:21.983Z,8.40
2019-03-17T16:31:53.610Z,8.40
2019-03-17T16:34:24.813Z,8.20
2019-03-17T16:36:55.900Z,8.30
2019-03-17T16:39:27.869Z,8.20
2019-03-17T16:41:59.193Z,8.10
2019-03-17T16:44:30.413Z,7.90
2019-03-17T16:47:01.970Z,7.80
2019-03-17T16:49:33.097Z,7.70
2019-03-17T16:52:04.359Z,7.60
2019-03-17T16:54:35.940Z,7.60
2019-03-17T16:57:07.125Z,7.60
2019-03-17T16:59:38.375Z,7.70
2019-03-17T17:02:09.615Z,7.80
2019-03-17T17:04:40.771Z,7.80
2019-03-17T17:07:11.957Z,7.80
2019-03-17T17:09:43.066Z,7.70
2019-03-17T17:12:16.408Z,7.60
2019-03-17T17:14:47.527Z,7.60
2019-03-17T17:17:18.950Z,7.50
2019-03-17T17:19:50.481Z,7.50
2019-03-17T17:22:22.460Z,7.50
2019-03-17T17:24:53.984Z,7.40
2019-03-17T17:27:25.668Z,7.40
2019-03-17T17:29:57.063Z,7.40
2019-03-17T17:32:28.511Z,7.30
2019-03-17T17:34:59.974Z,7.10
2019-03-17T17:37:31.237Z,6.80
2019-03-17T17:40:02.425Z,6.40
2019-03-17T17:42:33.539Z,6.30
2019-03-17T17:45:05.500Z,6.10
2019-03-17T17:47:36.741Z,6.10
2019-03-17T17:50:09.504Z,6.10
2019-03-17T17:52:40.995Z,6.20
2019-03-17T17:55:12.422Z,6.10
2019-03-17T17:57:43.732Z,6.00
2019-03-17T18:00:19.348Z,5.80
2019-03-17T18:02:50.582Z,5.80
2019-03-17T18:05:21.752Z,5.80
2019-03-17T18:07:53.158Z,5.90
2019-03-17T18:10:24.407Z,5.80
2019-03-17T18:12:55.750Z,5.80
2019-03-17T18:15:27.039Z,6.00
2019-03-17T18:17:58.646Z,6.00
2019-03-17T18:20:29.970Z,6.10
2019-03-17T18:23:01.176Z,6.10
2019-03-17T18:25:32.411Z,6.10
2019-03-17T18:28:03.788Z,6.00
2019-03-17T18:30:34.958Z,5.80
2019-03-17T18:33:06.309Z,5.30
2019-03-17T18:35:37.985Z,5.00
2019-03-17T18:38:09.247Z,4.90
2019-03-17T18:40:42.321Z,4.60
2019-03-17T18:43:13.460Z,4.30
2019-03-17T18:45:45.032Z,4.30
2019-03-17T18:48:16.260Z,4.20
2019-03-17T18:50:47.427Z,4.20
2019-03-17T18:53:18.578Z,4.20
2019-03-17T18:55:49.800Z,4.30
2019-03-17T18:58:21.453Z,4.50
2019-03-17T19:00:52.931Z,4.70
2019-03-17T19:03:24.060Z,4.90
2019-03-17T19:05:55.521Z,5.00
2019-03-17T19:08:27.101Z,5.10
2019-03-17T19:10:58.704Z,5.10
2019-03-17T19:13:29.987Z,5.10
2019-03-17T19:16:01.200Z,5.00
2019-03-17T19:18:32.538Z,5.00
2019-03-17T19:21:04.452Z,4.80
2019-03-17T19:23:35.541Z,4.70
2019-03-17T19:26:07.016Z,4.70
2019-03-17T19:28:39.213Z,4.70
2019-03-17T19:31:10.448Z,4.80
2019-03-17T19:33:41.537Z,4.80
2019-03-17T19:36:12.785Z,4.90
2019-03-17T19:38:44.058Z,4.90
2019-03-17T19:41:15.178Z,5.00
2019-03-17T19:43:46.273Z,5.10
2019-03-17T19:46:18.701Z,5.10
2019-03-17T19:48:50.120Z,5.00
2019-03-17T19:51:21.205Z,4.90
2019-03-17T19:53:52.550Z,4.90
2019-03-17T19:56:23.726Z,4.80
2019-03-17T19:58:54.799Z,4.80
2019-03-17T20:01:25.898Z,4.80
2019-03-17T20:03:57.057Z,4.90
2019-03-17T20:06:28.716Z,4.90
2019-03-17T20:09:00.138Z,4.70
2019-03-17T20:11:31.358Z,4.80
2019-03-17T20:14:02.662Z,4.70
2019-03-17T20:16:33.835Z,4.70
2019-03-17T20:19:05.069Z,4.70
2019-03-17T20:21:36.316Z,4.70
2019-03-17T20:24:07.759Z,4.60
2019-03-17T20:26:38.919Z,4.50
2019-03-17T20:29:10.504Z,4.40
2019-03-17T20:31:41.630Z,4.40
2019-03-17T20:34:12.849Z,4.40
2019-03-17T20:36:43.967Z,4.50
2019-03-17T20:39:15.047Z,4.50
2019-03-17T20:41:46.150Z,4.50
2019-03-17T20:44:17.440Z,4.50
2019-03-17T20:46:48.577Z,4.50
2019-03-17T20:49:19.859Z,4.50
2019-03-17T20:51:51.291Z,4.50
2019-03-17T20:54:22.774Z,4.50
2019-03-17T20:56:54.119Z,4.40
2019-03-17T20:59:25.342Z,4.40
2019-03-17T21:01:56.403Z,4.40
2019-03-17T21:04:27.901Z,4.30
2019-03-17T21:06:59.039Z,4.30
2019-03-17T21:09:30.559Z,4.20
2019-03-17T21:12:01.667Z,4.20
2019-03-17T21:14:32.901Z,4.20
2019-03-17T21:17:04.215Z,4.20
2019-03-17T21:19:35.759Z,4.10
2019-03-17T21:22:07.466Z,4.10
2019-03-17T21:24:38.574Z,4.10
2019-03-17T21:27:10.505Z,4.20
2019-03-17T21:29:41.755Z,4.20
2019-03-17T21:32:13.010Z,4.30
2019-03-17T21:34:44.312Z,4.30
2019-03-17T21:37:15.373Z,4.30
2019-03-17T21:39:46.908Z,4.30
2019-03-17T21:42:18.637Z,4.30
2019-03-17T21:44:49.885Z,4.30
2019-03-17T21:47:20.983Z,4.30
2019-03-17T21:49:52.098Z,4.30
2019-03-17T21:52:23.273Z,4.40
2019-03-17T21:54:54.420Z,4.50
2019-03-17T21:57:25.526Z,4.50
2019-03-17T21:59:56.888Z,4.50
2019-03-17T22:02:28.061Z,4.50
2019-03-17T22:04:59.171Z,4.50
2019-03-17T22:07:30.285Z,4.50
2019-03-17T22:10:01.711Z,4.50
2019-03-17T22:12:32.939Z,4.60
2019-03-17T22:15:04.316Z,4.60
2019-03-17T22:17:35.764Z,4.60
2019-03-17T22:20:07.781Z,4.60
2019-03-17T22:22:38.883Z,4.70
2019-03-17T22:25:10.345Z,4.70
2019-03-17T22:27:41.548Z,4.70
2019-03-17T22:30:13.969Z,4.60
2019-03-17T22:32:45.254Z,4.60
2019-03-17T22:35:16.573Z,4.60
2019-03-17T22:37:48.446Z,4.60
2019-03-17T22:40:19.704Z,4.50
2019-03-17T22:42:50.839Z,4.50
2019-03-17T22:45:21.969Z,4.60
2019-03-17T22:47:53.509Z,4.60
2019-03-17T22:50:24.743Z,4.50
2019-03-17T22:52:56.199Z,4.50
2019-03-17T22:55:27.513Z,4.40
2019-03-17T22:57:59.369Z,4.40
2019-03-17T23:00:43.862Z,4.40
2019-03-17T23:03:15.208Z,4.50
2019-03-17T23:05:46.297Z,4.50
2019-03-17T23:08:17.805Z,4.50
2019-03-17T23:10:49.637Z,4.60
2019-03-17T23:13:21.013Z,4.60
2019-03-17T23:15:52.186Z,4.50
2019-03-17T23:18:23.251Z,4.60
2019-03-17T23:20:54.550Z,4.50
2019-03-17T23:23:25.721Z,4.50
2019-03-17T23:25:56.861Z,4.50
2019-03-17T23:28:27.910Z,4.60
2019-03-17T23:30:59.361Z,4.50
2019-03-17T23:33:30.526Z,4.60
2019-03-17T23:36:01.986Z,4.70
2019-03-17T23:38:33.139Z,4.60
2019-03-17T23:41:04.466Z,4.60
2019-03-17T23:43:35.700Z,4.80
2019-03-17T23:46:06.783Z,4.90
2019-03-17T23:48:37.962Z,4.90
2019-03-17T23:51:09.682Z,4.80
2019-03-17T23:53:41.152Z,4.70
2019-03-17T23:56:12.279Z,4.60
2019-03-17T23:58:43.363Z,4.60
